PAFAPANI

Guest
Details From PAFA - Fairbanks Intl
To PANI - Aniak
Flight Number -
Tags Generated
Created
Modified
Stats Distance 371 nm / 687 km
Max Altitude 0 ft / 0 m
Waypoints 3
Social Downloads 1
Likes 0
Share VATSIM

Download

Looking for another format? Having issues loading an existing format? Contact us
Advertisement - Login to hide

Notes

Generated

Route

PAFA R0112 PANI

ID Type Via Altitude Latitude Longitude Leg Dist Tot Dist Heading (true) Name
O PAFA APT - 0 ft / 0 m 64.81606˚ -147.84656˚ - 0 nm - -
R0112 FIX - 0 ft / 0 m 61.58585˚ -159.55777˚ 370 nm 370 nm 244° / 233° -
O PANI APT - 0 ft / 0 m 61.58585˚ -159.55777˚ 0 nm 370 nm 0° / 180° -

Altitude Profile

Advertisement - Login to hide

Weather


0- 5 10 15 20 25 30 35+ Temperature / ° C

Clouds and Precipitation
Forecast for 2017-12-17 06:00 UTC. Updated an hour ago

Ground ~20,000 ft ~40,000 ft Winds

PAFA

Details ICAO PAFA (FAI)
Name FAIRBANKS INTL
Region USA (Alaska)
Timezone America/Anchorage (UTC-9.0)
Stats Elevation 434 ft / 132 m (AMSL)
Location 64.813909° -147.855392°
Runways 3
Magnetic Variation 17.507° E

METAR

PAFA 170227Z COR 19006KT 2SM -SN BR BKN025 OVC031 M06/M08 A2920

Decode

TAF

TAF TAF AMD PAFA 170141Z 1702/1806 VRB04KT 2SM -SN BKN020 BKN035 OVC050 FM171200 VRB03KT 4SM -SN BR BKN025 BKN035 OVC050

Decode

Departure Runways

ID Width Length Bearing (true) Bearing (mag) Surface Threshold Offset Overrun Length
01 75 ft / 23 m 2,892 ft / 881 m 38.04° 20.53° Gravel 0 ft / 0 m 0 ft / 0 m
01L 150 ft / 46 m 11,767 ft / 3,587 m 38.00° 20.49° Asphalt 750 ft / 229 m 0 ft / 0 m
01R 100 ft / 30 m 6,482 ft / 1,976 m 38.01° 20.50° Asphalt 0 ft / 0 m 0 ft / 0 m
19 75 ft / 23 m 2,892 ft / 881 m 218.05° 200.54° Gravel 0 ft / 0 m 0 ft / 0 m
19L 100 ft / 30 m 6,482 ft / 1,976 m 218.04° 200.53° Asphalt 0 ft / 0 m 0 ft / 0 m
19R 150 ft / 46 m 11,767 ft / 3,587 m 218.04° 200.53° Asphalt 750 ft / 229 m 0 ft / 0 m

PANI

Details ICAO PANI (ANI)
Name ANIAK
Region USA (Alaska)
Timezone America/Anchorage (UTC-9.0)
Stats Elevation 88 ft / 27 m (AMSL)
Location 61.581597° -159.543045°
Runways 1
Magnetic Variation 12.547° E

METAR

PANI 170156Z AUTO 00000KT 10SM CLR M06/M07 A2916 RMK AO2 SLP845 T10561072 FZRANO

Decode

TAF

Not found

Destination Runways

ID Width Length Bearing (true) Bearing (mag) Surface Threshold Offset Overrun Length
10 151 ft / 46 m 5,982 ft / 1,823 m 121.22° 108.67° Asphalt 0 ft / 0 m 0 ft / 0 m
28 151 ft / 46 m 5,982 ft / 1,823 m 301.24° 288.69° Asphalt 0 ft / 0 m 0 ft / 0 m

Approach Navaids

Runway Type Ident Frequency Range Bearing (true) Bearing (mag) Slope Elevation
10 Localiser IANI 109.70 MHz 18 nm / 33 km 121.25° 108.70° - 88 ft / 27 m (AMSL)
10 Glidescope IANI 109.70 MHz 10 nm / 19 km 121.23° 108.68° 3.00° 88 ft / 27 m (AMSL)
10 DME IANI 109.70 MHz 18 nm / 33 km - - - 88 ft / 27 m (AMSL)

Popular Alternatives